Rechercher aéroport 
image banner adimage banner adimage banner ad
image banner ad

18CL - Bowles

Situé à Live Oak, United States

ICAO - 18CL, IATA -

Données fournies par Airmate  

Information générale

Coordonnées: N39°17'10" W121°41'39"
Élévation : 75 feet MSL.
Variation magnétique : 16° East
Voir autres Aéroports à California

Données opérationnelles

Special qualification required
Heure actuelle UTC:
Heure actuelle locale:
Météo à : KOVE - Oroville Muni ( 23 km )
METAR: KOVE 210253Z AUTO 10004KT 10SM CLR 28/04 A2991 RMK AO2 SLP130 T02830039 $
Voir NOTAMs / SUP AIP / TFR affectant cet aéroport [VIEW]
Fréquences de communication: [VIEW]

Pistes:

Identifiant RWYQFULongueur (ft)Largeur (ft)SurfaceLDA (ft)
15260050OTHER
33260050OTHER

Coordonnées de l'aéroport

Adresse: Live Oak United States

Vue satellite de 18CL